sensor_id;sensor_type;location;lat;lon;timestamp;temperature;humidity
21807;DHT22;11065;50.786;7.840;2023-05-15T00:00:50;14.60;50.70
21807;DHT22;11065;50.786;7.840;2023-05-15T00:03:20;14.60;50.70
21807;DHT22;11065;50.786;7.840;2023-05-15T00:05:48;14.60;50.90
21807;DHT22;11065;50.786;7.840;2023-05-15T00:08:16;14.60;51.00
21807;DHT22;11065;50.786;7.840;2023-05-15T00:10:44;14.60;51.00
21807;DHT22;11065;50.786;7.840;2023-05-15T00:13:26;14.60;51.00
21807;DHT22;11065;50.786;7.840;2023-05-15T00:15:54;14.60;51.00
21807;DHT22;11065;50.786;7.840;2023-05-15T00:18:23;14.60;51.10
21807;DHT22;11065;50.786;7.840;2023-05-15T00:20:52;14.60;51.10
21807;DHT22;11065;50.786;7.840;2023-05-15T00:23:20;14.60;51.10
21807;DHT22;11065;50.786;7.840;2023-05-15T00:25:48;14.60;51.10
21807;DHT22;11065;50.786;7.840;2023-05-15T00:28:16;14.70;51.10
21807;DHT22;11065;50.786;7.840;2023-05-15T00:30:44;14.60;51.50
21807;DHT22;11065;50.786;7.840;2023-05-15T00:33:12;14.60;51.20
21807;DHT22;11065;50.786;7.840;2023-05-15T00:35:41;14.60;51.20
21807;DHT22;11065;50.786;7.840;2023-05-15T00:38:09;14.60;51.20
21807;DHT22;11065;50.786;7.840;2023-05-15T00:40:38;14.70;51.20
21807;DHT22;11065;50.786;7.840;2023-05-15T00:43:09;14.70;51.20
21807;DHT22;11065;50.786;7.840;2023-05-15T00:45:38;14.70;51.10
21807;DHT22;11065;50.786;7.840;2023-05-15T00:48:08;14.70;51.10
21807;DHT22;11065;50.786;7.840;2023-05-15T00:50:38;14.60;51.50
21807;DHT22;11065;50.786;7.840;2023-05-15T00:53:10;14.60;51.00
21807;DHT22;11065;50.786;7.840;2023-05-15T00:55:38;14.60;50.90
21807;DHT22;11065;50.786;7.840;2023-05-15T00:58:07;14.60;50.90
21807;DHT22;11065;50.786;7.840;2023-05-15T01:00:37;14.60;50.90
21807;DHT22;11065;50.786;7.840;2023-05-15T01:03:05;14.50;50.90
21807;DHT22;11065;50.786;7.840;2023-05-15T01:05:34;14.50;50.80
21807;DHT22;11065;50.786;7.840;2023-05-15T01:08:07;14.50;50.80
21807;DHT22;11065;50.786;7.840;2023-05-15T01:10:42;14.40;50.90
21807;DHT22;11065;50.786;7.840;2023-05-15T01:13:11;14.40;50.80
21807;DHT22;11065;50.786;7.840;2023-05-15T01:15:40;14.40;50.90
21807;DHT22;11065;50.786;7.840;2023-05-15T01:18:09;14.30;50.90
21807;DHT22;11065;50.786;7.840;2023-05-15T01:20:49;14.30;51.00
21807;DHT22;11065;50.786;7.840;2023-05-15T01:23:25;14.30;51.60
21807;DHT22;11065;50.786;7.840;2023-05-15T01:28:57;14.30;52.10
21807;DHT22;11065;50.786;7.840;2023-05-15T01:31:27;14.30;51.50
21807;DHT22;11065;50.786;7.840;2023-05-15T01:34:02;14.20;51.30
21807;DHT22;11065;50.786;7.840;2023-05-15T01:36:35;14.20;51.40
21807;DHT22;11065;50.786;7.840;2023-05-15T01:39:04;14.10;51.50
21807;DHT22;11065;50.786;7.840;2023-05-15T01:41:35;14.10;51.50
21807;DHT22;11065;50.786;7.840;2023-05-15T01:44:17;14.10;51.60
21807;DHT22;11065;50.786;7.840;2023-05-15T01:46:48;14.10;51.80
21807;DHT22;11065;50.786;7.840;2023-05-15T01:49:18;14.20;51.70
21807;DHT22;11065;50.786;7.840;2023-05-15T01:52:00;14.10;51.60
21807;DHT22;11065;50.786;7.840;2023-05-15T01:54:32;14.10;51.70
21807;DHT22;11065;50.786;7.840;2023-05-15T01:57:01;14.10;51.50
21807;DHT22;11065;50.786;7.840;2023-05-15T01:59:31;14.10;51.60
21807;DHT22;11065;50.786;7.840;2023-05-15T02:02:01;14.10;51.70
21807;DHT22;11065;50.786;7.840;2023-05-15T02:04:32;14.10;51.60
21807;DHT22;11065;50.786;7.840;2023-05-15T02:07:00;14.10;51.50
21807;DHT22;11065;50.786;7.840;2023-05-15T02:09:30;14.00;51.30
21807;DHT22;11065;50.786;7.840;2023-05-15T02:12:01;14.00;51.20
21807;DHT22;11065;50.786;7.840;2023-05-15T02:14:31;13.90;51.10
21807;DHT22;11065;50.786;7.840;2023-05-15T02:16:59;13.90;51.10
21807;DHT22;11065;50.786;7.840;2023-05-15T02:19:28;13.80;51.00
21807;DHT22;11065;50.786;7.840;2023-05-15T02:21:56;13.80;51.00
21807;DHT22;11065;50.786;7.840;2023-05-15T02:24:24;13.70;51.00
21807;DHT22;11065;50.786;7.840;2023-05-15T02:26:58;13.70;51.20
21807;DHT22;11065;50.786;7.840;2023-05-15T02:29:33;13.70;51.40
21807;DHT22;11065;50.786;7.840;2023-05-15T02:32:09;13.60;51.50
21807;DHT22;11065;50.786;7.840;2023-05-15T02:34:46;13.60;51.60
21807;DHT22;11065;50.786;7.840;2023-05-15T02:37:20;13.60;51.70
21807;DHT22;11065;50.786;7.840;2023-05-15T02:39:52;13.60;51.70
21807;DHT22;11065;50.786;7.840;2023-05-15T02:42:24;13.60;51.70
21807;DHT22;11065;50.786;7.840;2023-05-15T02:44:54;13.60;51.70
21807;DHT22;11065;50.786;7.840;2023-05-15T02:47:24;13.60;51.80
21807;DHT22;11065;50.786;7.840;2023-05-15T02:49:53;13.60;51.70
21807;DHT22;11065;50.786;7.840;2023-05-15T02:52:22;13.60;51.70
21807;DHT22;11065;50.786;7.840;2023-05-15T02:54:50;13.60;51.70
21807;DHT22;11065;50.786;7.840;2023-05-15T02:57:18;13.60;51.60
21807;DHT22;11065;50.786;7.840;2023-05-15T02:59:46;13.50;51.60
21807;DHT22;11065;50.786;7.840;2023-05-15T03:02:15;13.50;51.70
21807;DHT22;11065;50.786;7.840;2023-05-15T03:04:43;13.50;51.80
21807;DHT22;11065;50.786;7.840;2023-05-15T03:07:13;13.50;51.80
21807;DHT22;11065;50.786;7.840;2023-05-15T03:09:41;13.50;51.80
21807;DHT22;11065;50.786;7.840;2023-05-15T03:12:09;13.50;51.80
21807;DHT22;11065;50.786;7.840;2023-05-15T03:14:37;13.50;51.90
21807;DHT22;11065;50.786;7.840;2023-05-15T03:17:05;13.50;51.90
21807;DHT22;11065;50.786;7.840;2023-05-15T03:19:35;13.40;51.70
21807;DHT22;11065;50.786;7.840;2023-05-15T03:22:03;13.40;51.80
21807;DHT22;11065;50.786;7.840;2023-05-15T03:24:31;13.40;51.90
21807;DHT22;11065;50.786;7.840;2023-05-15T03:26:59;13.40;51.90
21807;DHT22;11065;50.786;7.840;2023-05-15T03:29:28;13.40;52.00
21807;DHT22;11065;50.786;7.840;2023-05-15T03:31:56;13.40;52.00
21807;DHT22;11065;50.786;7.840;2023-05-15T03:34:24;13.30;52.00
21807;DHT22;11065;50.786;7.840;2023-05-15T03:36:53;13.30;52.00
21807;DHT22;11065;50.786;7.840;2023-05-15T03:39:21;13.30;52.00
21807;DHT22;11065;50.786;7.840;2023-05-15T03:41:49;13.30;52.00
21807;DHT22;11065;50.786;7.840;2023-05-15T03:44:17;13.30;52.10
21807;DHT22;11065;50.786;7.840;2023-05-15T03:46:45;13.30;52.10
21807;DHT22;11065;50.786;7.840;2023-05-15T03:49:13;13.20;52.10
21807;DHT22;11065;50.786;7.840;2023-05-15T03:51:41;13.20;52.10
21807;DHT22;11065;50.786;7.840;2023-05-15T03:54:10;13.20;52.10
21807;DHT22;11065;50.786;7.840;2023-05-15T03:56:39;13.20;52.00
21807;DHT22;11065;50.786;7.840;2023-05-15T03:59:07;13.10;51.80
21807;DHT22;11065;50.786;7.840;2023-05-15T04:01:35;13.10;51.90
21807;DHT22;11065;50.786;7.840;2023-05-15T04:04:24;13.10;51.90
21807;DHT22;11065;50.786;7.840;2023-05-15T04:06:52;13.00;51.90
21807;DHT22;11065;50.786;7.840;2023-05-15T04:09:21;13.00;51.90
21807;DHT22;11065;50.786;7.840;2023-05-15T04:11:49;13.00;52.00
21807;DHT22;11065;50.786;7.840;2023-05-15T04:14:17;13.00;52.00
21807;DHT22;11065;50.786;7.840;2023-05-15T04:16:45;13.00;52.00
21807;DHT22;11065;50.786;7.840;2023-05-15T04:19:13;13.00;52.20
21807;DHT22;11065;50.786;7.840;2023-05-15T04:21:42;13.00;52.30
21807;DHT22;11065;50.786;7.840;2023-05-15T04:24:10;13.00;52.40
21807;DHT22;11065;50.786;7.840;2023-05-15T04:26:39;13.00;52.50
21807;DHT22;11065;50.786;7.840;2023-05-15T04:29:07;13.00;52.60
21807;DHT22;11065;50.786;7.840;2023-05-15T04:31:35;13.00;52.60
21807;DHT22;11065;50.786;7.840;2023-05-15T04:34:04;13.00;52.60
21807;DHT22;11065;50.786;7.840;2023-05-15T04:36:32;13.00;52.60
21807;DHT22;11065;50.786;7.840;2023-05-15T04:39:00;13.00;52.60
21807;DHT22;11065;50.786;7.840;2023-05-15T04:41:29;13.10;52.60
21807;DHT22;11065;50.786;7.840;2023-05-15T04:44:00;13.10;52.50
21807;DHT22;11065;50.786;7.840;2023-05-15T04:46:28;13.00;52.60
21807;DHT22;11065;50.786;7.840;2023-05-15T04:48:56;13.10;52.70
21807;DHT22;11065;50.786;7.840;2023-05-15T04:51:24;13.10;52.80
21807;DHT22;11065;50.786;7.840;2023-05-15T04:53:52;13.10;52.80
21807;DHT22;11065;50.786;7.840;2023-05-15T04:56:20;13.10;52.90
21807;DHT22;11065;50.786;7.840;2023-05-15T04:58:48;13.10;52.90
21807;DHT22;11065;50.786;7.840;2023-05-15T05:01:17;13.10;53.00
21807;DHT22;11065;50.786;7.840;2023-05-15T05:03:45;13.10;53.00
21807;DHT22;11065;50.786;7.840;2023-05-15T05:06:13;13.20;53.00
21807;DHT22;11065;50.786;7.840;2023-05-15T05:08:42;13.20;53.10
21807;DHT22;11065;50.786;7.840;2023-05-15T05:11:10;13.20;53.00
21807;DHT22;11065;50.786;7.840;2023-05-15T05:13:38;13.30;53.10
21807;DHT22;11065;50.786;7.840;2023-05-15T05:16:06;13.30;53.10
21807;DHT22;11065;50.786;7.840;2023-05-15T05:18:36;13.30;53.20
21807;DHT22;11065;50.786;7.840;2023-05-15T05:21:04;13.40;53.30
21807;DHT22;11065;50.786;7.840;2023-05-15T05:23:32;13.40;53.20
21807;DHT22;11065;50.786;7.840;2023-05-15T05:26:00;13.50;53.20
21807;DHT22;11065;50.786;7.840;2023-05-15T05:28:30;13.50;53.20
21807;DHT22;11065;50.786;7.840;2023-05-15T05:30:59;13.50;53.20
21807;DHT22;11065;50.786;7.840;2023-05-15T05:33:28;13.60;53.40
21807;DHT22;11065;50.786;7.840;2023-05-15T05:35:57;13.60;53.40
21807;DHT22;11065;50.786;7.840;2023-05-15T05:38:25;13.60;53.50
21807;DHT22;11065;50.786;7.840;2023-05-15T05:40:53;13.70;53.60
21807;DHT22;11065;50.786;7.840;2023-05-15T05:43:21;13.70;53.70
21807;DHT22;11065;50.786;7.840;2023-05-15T05:45:49;13.70;53.70
21807;DHT22;11065;50.786;7.840;2023-05-15T05:48:17;13.70;53.70
21807;DHT22;11065;50.786;7.840;2023-05-15T05:50:45;13.80;53.70
21807;DHT22;11065;50.786;7.840;2023-05-15T05:53:15;13.80;53.60
21807;DHT22;11065;50.786;7.840;2023-05-15T05:55:43;13.90;53.70
21807;DHT22;11065;50.786;7.840;2023-05-15T05:58:11;13.90;53.60
21807;DHT22;11065;50.786;7.840;2023-05-15T06:00:50;13.90;53.60
21807;DHT22;11065;50.786;7.840;2023-05-15T06:03:19;13.80;53.50
21807;DHT22;11065;50.786;7.840;2023-05-15T06:05:47;13.90;53.60
21807;DHT22;11065;50.786;7.840;2023-05-15T06:08:16;13.90;53.70
21807;DHT22;11065;50.786;7.840;2023-05-15T06:10:45;14.00;53.80
21807;DHT22;11065;50.786;7.840;2023-05-15T06:13:14;14.00;53.80
21807;DHT22;11065;50.786;7.840;2023-05-15T06:15:42;14.00;53.90
21807;DHT22;11065;50.786;7.840;2023-05-15T06:18:11;14.10;54.00
21807;DHT22;11065;50.786;7.840;2023-05-15T06:20:39;14.10;54.10
21807;DHT22;11065;50.786;7.840;2023-05-15T06:23:08;14.10;54.10
21807;DHT22;11065;50.786;7.840;2023-05-15T06:25:37;14.20;54.10
21807;DHT22;11065;50.786;7.840;2023-05-15T06:28:06;14.30;54.20
21807;DHT22;11065;50.786;7.840;2023-05-15T06:30:34;14.30;54.10
21807;DHT22;11065;50.786;7.840;2023-05-15T06:33:02;14.30;54.20
21807;DHT22;11065;50.786;7.840;2023-05-15T06:35:30;14.40;54.20
21807;DHT22;11065;50.786;7.840;2023-05-15T06:37:58;14.50;54.20
21807;DHT22;11065;50.786;7.840;2023-05-15T06:40:26;14.50;54.20
21807;DHT22;11065;50.786;7.840;2023-05-15T06:42:55;14.60;54.20
21807;DHT22;11065;50.786;7.840;2023-05-15T06:45:24;14.60;54.20
21807;DHT22;11065;50.786;7.840;2023-05-15T06:47:53;14.70;54.10
21807;DHT22;11065;50.786;7.840;2023-05-15T06:50:25;14.70;54.00
21807;DHT22;11065;50.786;7.840;2023-05-15T06:52:53;14.80;54.00
21807;DHT22;11065;50.786;7.840;2023-05-15T06:55:21;14.80;54.00
21807;DHT22;11065;50.786;7.840;2023-05-15T06:57:49;14.80;54.00
21807;DHT22;11065;50.786;7.840;2023-05-15T07:00:19;14.80;54.00
21807;DHT22;11065;50.786;7.840;2023-05-15T07:02:47;14.80;54.10
21807;DHT22;11065;50.786;7.840;2023-05-15T07:05:15;14.90;54.20
21807;DHT22;11065;50.786;7.840;2023-05-15T07:07:43;14.90;54.20
21807;DHT22;11065;50.786;7.840;2023-05-15T07:10:11;15.00;54.20
21807;DHT22;11065;50.786;7.840;2023-05-15T07:12:39;15.00;54.20
21807;DHT22;11065;50.786;7.840;2023-05-15T07:15:08;15.10;54.30
21807;DHT22;11065;50.786;7.840;2023-05-15T07:17:38;15.10;54.30
21807;DHT22;11065;50.786;7.840;2023-05-15T07:20:07;15.20;54.40
21807;DHT22;11065;50.786;7.840;2023-05-15T07:22:35;15.20;54.30
21807;DHT22;11065;50.786;7.840;2023-05-15T07:25:11;15.30;54.40
21807;DHT22;11065;50.786;7.840;2023-05-15T07:27:42;15.40;54.40
21807;DHT22;11065;50.786;7.840;2023-05-15T07:30:12;15.40;54.40
21807;DHT22;11065;50.786;7.840;2023-05-15T07:32:42;15.50;54.50
21807;DHT22;11065;50.786;7.840;2023-05-15T07:35:12;15.60;54.70
21807;DHT22;11065;50.786;7.840;2023-05-15T07:37:40;15.60;54.70
21807;DHT22;11065;50.786;7.840;2023-05-15T07:40:09;15.60;54.70
21807;DHT22;11065;50.786;7.840;2023-05-15T07:42:39;15.80;54.80
21807;DHT22;11065;50.786;7.840;2023-05-15T07:45:09;15.90;54.80
21807;DHT22;11065;50.786;7.840;2023-05-15T07:47:40;15.90;54.70
21807;DHT22;11065;50.786;7.840;2023-05-15T07:50:10;16.00;54.80
21807;DHT22;11065;50.786;7.840;2023-05-15T07:52:42;16.10;54.80
21807;DHT22;11065;50.786;7.840;2023-05-15T07:55:11;16.10;54.70
21807;DHT22;11065;50.786;7.840;2023-05-15T07:57:40;16.20;54.80
21807;DHT22;11065;50.786;7.840;2023-05-15T08:00:10;16.20;54.70
21807;DHT22;11065;50.786;7.840;2023-05-15T08:02:40;16.30;54.80
21807;DHT22;11065;50.786;7.840;2023-05-15T08:05:14;16.30;54.70
21807;DHT22;11065;50.786;7.840;2023-05-15T08:07:42;16.40;54.70
21807;DHT22;11065;50.786;7.840;2023-05-15T08:10:11;16.50;54.80
21807;DHT22;11065;50.786;7.840;2023-05-15T08:12:40;16.50;54.80
21807;DHT22;11065;50.786;7.840;2023-05-15T08:15:12;16.60;54.80
21807;DHT22;11065;50.786;7.840;2023-05-15T08:17:41;16.70;54.70
21807;DHT22;11065;50.786;7.840;2023-05-15T08:20:11;16.80;54.70
21807;DHT22;11065;50.786;7.840;2023-05-15T08:22:42;16.80;54.70
21807;DHT22;11065;50.786;7.840;2023-05-15T08:25:10;16.90;54.70
21807;DHT22;11065;50.786;7.840;2023-05-15T08:27:39;17.00;54.60
21807;DHT22;11065;50.786;7.840;2023-05-15T08:30:08;17.00;54.50
21807;DHT22;11065;50.786;7.840;2023-05-15T08:32:36;17.10;54.50
21807;DHT22;11065;50.786;7.840;2023-05-15T08:35:06;17.10;54.40
21807;DHT22;11065;50.786;7.840;2023-05-15T08:37:35;17.20;54.40
21807;DHT22;11065;50.786;7.840;2023-05-15T08:40:07;17.20;54.30
21807;DHT22;11065;50.786;7.840;2023-05-15T08:42:42;17.30;54.30
21807;DHT22;11065;50.786;7.840;2023-05-15T08:45:12;17.30;54.10
21807;DHT22;11065;50.786;7.840;2023-05-15T08:47:42;17.40;54.20
21807;DHT22;11065;50.786;7.840;2023-05-15T08:50:12;17.40;54.20
21807;DHT22;11065;50.786;7.840;2023-05-15T08:52:41;17.50;54.00
21807;DHT22;11065;50.786;7.840;2023-05-15T08:55:12;17.50;53.80
21807;DHT22;11065;50.786;7.840;2023-05-15T08:57:41;17.50;53.70
21807;DHT22;11065;50.786;7.840;2023-05-15T09:00:10;17.60;53.80
21807;DHT22;11065;50.786;7.840;2023-05-15T09:02:41;17.60;53.70
21807;DHT22;11065;50.786;7.840;2023-05-15T09:05:09;17.60;53.70
21807;DHT22;11065;50.786;7.840;2023-05-15T09:07:38;17.60;53.70
21807;DHT22;11065;50.786;7.840;2023-05-15T09:10:08;17.60;53.90
21807;DHT22;11065;50.786;7.840;2023-05-15T09:12:41;17.70;54.10
21807;DHT22;11065;50.786;7.840;2023-05-15T09:15:11;17.80;54.20
21807;DHT22;11065;50.786;7.840;2023-05-15T09:17:39;18.00;54.40
21807;DHT22;11065;50.786;7.840;2023-05-15T09:20:24;18.10;54.30
21807;DHT22;11065;50.786;7.840;2023-05-15T09:22:54;18.30;54.00
21807;DHT22;11065;50.786;7.840;2023-05-15T09:25:34;18.40;53.90
21807;DHT22;11065;50.786;7.840;2023-05-15T09:28:05;18.60;53.60
21807;DHT22;11065;50.786;7.840;2023-05-15T09:30:36;18.70;53.70
21807;DHT22;11065;50.786;7.840;2023-05-15T09:33:04;18.80;53.50
21807;DHT22;11065;50.786;7.840;2023-05-15T09:35:34;18.90;53.30
21807;DHT22;11065;50.786;7.840;2023-05-15T09:38:05;19.00;53.30
21807;DHT22;11065;50.786;7.840;2023-05-15T09:40:34;19.20;53.10
21807;DHT22;11065;50.786;7.840;2023-05-15T09:43:02;19.30;53.00
21807;DHT22;11065;50.786;7.840;2023-05-15T09:45:32;19.40;52.90
21807;DHT22;11065;50.786;7.840;2023-05-15T09:48:03;19.60;53.10
21807;DHT22;11065;50.786;7.840;2023-05-15T09:50:33;20.00;54.20
21807;DHT22;11065;50.786;7.840;2023-05-15T09:53:02;20.60;54.60
21807;DHT22;11065;50.786;7.840;2023-05-15T09:55:30;21.00;53.70
21807;DHT22;11065;50.786;7.840;2023-05-15T09:58:10;21.20;52.50
21807;DHT22;11065;50.786;7.840;2023-05-15T10:00:41;21.50;51.10
21807;DHT22;11065;50.786;7.840;2023-05-15T10:03:16;21.60;51.10
21807;DHT22;11065;50.786;7.840;2023-05-15T10:05:44;21.70;51.10
21807;DHT22;11065;50.786;7.840;2023-05-15T10:08:25;21.90;51.30
21807;DHT22;11065;50.786;7.840;2023-05-15T10:10:54;22.20;51.00
21807;DHT22;11065;50.786;7.840;2023-05-15T10:13:26;22.60;51.40
21807;DHT22;11065;50.786;7.840;2023-05-15T10:16:00;23.00;51.30
21807;DHT22;11065;50.786;7.840;2023-05-15T10:18:29;23.40;50.30
21807;DHT22;11065;50.786;7.840;2023-05-15T10:21:00;23.70;50.80
21807;DHT22;11065;50.786;7.840;2023-05-15T10:23:30;24.20;50.20
21807;DHT22;11065;50.786;7.840;2023-05-15T10:26:06;24.60;49.60
21807;DHT22;11065;50.786;7.840;2023-05-15T10:28:35;24.90;49.20
21807;DHT22;11065;50.786;7.840;2023-05-15T10:31:06;25.40;48.70
21807;DHT22;11065;50.786;7.840;2023-05-15T10:33:35;25.70;47.90
21807;DHT22;11065;50.786;7.840;2023-05-15T10:36:04;26.00;47.70
21807;DHT22;11065;50.786;7.840;2023-05-15T10:38:34;26.20;47.70
21807;DHT22;11065;50.786;7.840;2023-05-15T10:41:03;26.60;47.60
21807;DHT22;11065;50.786;7.840;2023-05-15T10:43:43;26.90;47.90
21807;DHT22;11065;50.786;7.840;2023-05-15T10:46:14;27.30;47.40
21807;DHT22;11065;50.786;7.840;2023-05-15T10:48:42;27.50;45.90
21807;DHT22;11065;50.786;7.840;2023-05-15T10:51:15;27.60;45.70
21807;DHT22;11065;50.786;7.840;2023-05-15T10:53:43;27.70;45.10
21807;DHT22;11065;50.786;7.840;2023-05-15T10:56:13;27.80;45.30
21807;DHT22;11065;50.786;7.840;2023-05-15T10:58:46;27.90;45.10
21807;DHT22;11065;50.786;7.840;2023-05-15T11:01:27;28.10;44.40
21807;DHT22;11065;50.786;7.840;2023-05-15T11:04:07;28.20;43.90
21807;DHT22;11065;50.786;7.840;2023-05-15T11:06:37;28.50;44.00
21807;DHT22;11065;50.786;7.840;2023-05-15T11:09:36;28.70;44.70
21807;DHT22;11065;50.786;7.840;2023-05-15T11:12:06;29.00;43.40
21807;DHT22;11065;50.786;7.840;2023-05-15T11:14:37;29.20;43.60
21807;DHT22;11065;50.786;7.840;2023-05-15T11:17:07;29.40;42.90
21807;DHT22;11065;50.786;7.840;2023-05-15T11:19:38;29.50;43.00
21807;DHT22;11065;50.786;7.840;2023-05-15T11:22:19;29.80;43.30
21807;DHT22;11065;50.786;7.840;2023-05-15T11:24:52;30.10;41.90
21807;DHT22;11065;50.786;7.840;2023-05-15T11:27:22;30.40;43.30
21807;DHT22;11065;50.786;7.840;2023-05-15T11:30:18;30.80;42.30
21807;DHT22;11065;50.786;7.840;2023-05-15T11:32:52;31.10;41.20
21807;DHT22;11065;50.786;7.840;2023-05-15T11:35:23;31.40;41.90
21807;DHT22;11065;50.786;7.840;2023-05-15T11:37:53;31.60;41.20
21807;DHT22;11065;50.786;7.840;2023-05-15T11:40:23;31.60;40.00
21807;DHT22;11065;50.786;7.840;2023-05-15T11:43:00;31.50;39.10
21807;DHT22;11065;50.786;7.840;2023-05-15T11:45:30;31.40;38.60
21807;DHT22;11065;50.786;7.840;2023-05-15T11:48:01;31.40;39.40
21807;DHT22;11065;50.786;7.840;2023-05-15T11:50:31;31.40;39.10
21807;DHT22;11065;50.786;7.840;2023-05-15T11:53:04;31.40;38.90
21807;DHT22;11065;50.786;7.840;2023-05-15T11:55:34;31.30;38.10
21807;DHT22;11065;50.786;7.840;2023-05-15T11:58:04;31.20;38.00
21807;DHT22;11065;50.786;7.840;2023-05-15T12:00:32;31.00;38.00
21807;DHT22;11065;50.786;7.840;2023-05-15T12:03:02;30.90;37.70
21807;DHT22;11065;50.786;7.840;2023-05-15T12:05:30;30.60;37.20
21807;DHT22;11065;50.786;7.840;2023-05-15T12:08:00;30.40;37.60
21807;DHT22;11065;50.786;7.840;2023-05-15T12:10:29;30.20;37.70
21807;DHT22;11065;50.786;7.840;2023-05-15T12:12:57;30.10;37.30
21807;DHT22;11065;50.786;7.840;2023-05-15T12:15:26;29.90;37.50
21807;DHT22;11065;50.786;7.840;2023-05-15T12:17:54;29.70;37.30
21807;DHT22;11065;50.786;7.840;2023-05-15T12:20:24;29.50;37.60
21807;DHT22;11065;50.786;7.840;2023-05-15T12:22:52;29.40;37.80
21807;DHT22;11065;50.786;7.840;2023-05-15T12:25:20;29.40;38.40
21807;DHT22;11065;50.786;7.840;2023-05-15T12:27:48;29.50;38.40
21807;DHT22;11065;50.786;7.840;2023-05-15T12:30:17;29.60;37.90
21807;DHT22;11065;50.786;7.840;2023-05-15T12:32:46;29.70;38.20
21807;DHT22;11065;50.786;7.840;2023-05-15T12:35:14;29.80;38.30
21807;DHT22;11065;50.786;7.840;2023-05-15T12:37:44;30.00;38.50
21807;DHT22;11065;50.786;7.840;2023-05-15T12:40:12;30.10;38.20
21807;DHT22;11065;50.786;7.840;2023-05-15T12:42:42;30.30;38.20
21807;DHT22;11065;50.786;7.840;2023-05-15T12:45:13;30.50;38.10
21807;DHT22;11065;50.786;7.840;2023-05-15T12:47:43;30.60;37.60
21807;DHT22;11065;50.786;7.840;2023-05-15T12:50:13;30.70;37.50
21807;DHT22;11065;50.786;7.840;2023-05-15T12:52:50;30.90;37.50
21807;DHT22;11065;50.786;7.840;2023-05-15T12:55:22;31.00;36.90
21807;DHT22;11065;50.786;7.840;2023-05-15T12:57:50;31.10;36.80
21807;DHT22;11065;50.786;7.840;2023-05-15T13:00:20;31.20;37.50
21807;DHT22;11065;50.786;7.840;2023-05-15T13:02:50;31.20;36.70
21807;DHT22;11065;50.786;7.840;2023-05-15T13:05:21;31.30;36.80
21807;DHT22;11065;50.786;7.840;2023-05-15T13:07:51;31.40;36.80
21807;DHT22;11065;50.786;7.840;2023-05-15T13:10:20;31.60;36.60
21807;DHT22;11065;50.786;7.840;2023-05-15T13:12:49;31.60;36.00
21807;DHT22;11065;50.786;7.840;2023-05-15T13:15:25;31.60;35.30
21807;DHT22;11065;50.786;7.840;2023-05-15T13:17:54;31.40;34.40
21807;DHT22;11065;50.786;7.840;2023-05-15T13:20:27;31.00;34.50
21807;DHT22;11065;50.786;7.840;2023-05-15T13:22:56;30.70;34.40
21807;DHT22;11065;50.786;7.840;2023-05-15T13:25:24;30.30;34.40
21807;DHT22;11065;50.786;7.840;2023-05-15T13:27:54;30.10;34.80
21807;DHT22;11065;50.786;7.840;2023-05-15T13:30:22;29.90;35.40
21807;DHT22;11065;50.786;7.840;2023-05-15T13:32:50;29.70;35.80
21807;DHT22;11065;50.786;7.840;2023-05-15T13:35:22;29.60;35.30
21807;DHT22;11065;50.786;7.840;2023-05-15T13:37:50;29.40;35.00
21807;DHT22;11065;50.786;7.840;2023-05-15T13:40:19;29.30;34.70
21807;DHT22;11065;50.786;7.840;2023-05-15T13:42:48;29.00;34.10
21807;DHT22;11065;50.786;7.840;2023-05-15T13:45:16;28.80;34.50
21807;DHT22;11065;50.786;7.840;2023-05-15T13:47:44;28.50;34.60
21807;DHT22;11065;50.786;7.840;2023-05-15T13:50:13;28.30;34.90
21807;DHT22;11065;50.786;7.840;2023-05-15T13:52:43;28.20;35.30
21807;DHT22;11065;50.786;7.840;2023-05-15T13:55:12;28.20;35.50
21807;DHT22;11065;50.786;7.840;2023-05-15T13:57:42;28.10;35.40
21807;DHT22;11065;50.786;7.840;2023-05-15T14:00:12;28.10;35.30
21807;DHT22;11065;50.786;7.840;2023-05-15T14:02:42;27.90;35.20
21807;DHT22;11065;50.786;7.840;2023-05-15T14:05:11;27.80;35.00
21807;DHT22;11065;50.786;7.840;2023-05-15T14:07:40;27.60;34.80
21807;DHT22;11065;50.786;7.840;2023-05-15T14:10:09;27.40;34.90
21807;DHT22;11065;50.786;7.840;2023-05-15T14:12:37;27.10;34.80
21807;DHT22;11065;50.786;7.840;2023-05-15T14:15:08;26.90;35.30
21807;DHT22;11065;50.786;7.840;2023-05-15T14:17:37;26.60;35.70
21807;DHT22;11065;50.786;7.840;2023-05-15T14:20:06;26.30;35.70
21807;DHT22;11065;50.786;7.840;2023-05-15T14:22:36;26.00;35.90
21807;DHT22;11065;50.786;7.840;2023-05-15T14:25:05;25.70;36.40
21807;DHT22;11065;50.786;7.840;2023-05-15T14:27:34;25.40;36.40
21807;DHT22;11065;50.786;7.840;2023-05-15T14:30:03;25.20;36.90
21807;DHT22;11065;50.786;7.840;2023-05-15T14:32:32;25.00;37.30
21807;DHT22;11065;50.786;7.840;2023-05-15T14:35:01;24.80;37.30
21807;DHT22;11065;50.786;7.840;2023-05-15T14:37:29;24.60;37.50
21807;DHT22;11065;50.786;7.840;2023-05-15T14:39:57;24.40;37.80
21807;DHT22;11065;50.786;7.840;2023-05-15T14:42:25;24.30;37.90
21807;DHT22;11065;50.786;7.840;2023-05-15T14:44:53;24.20;38.00
21807;DHT22;11065;50.786;7.840;2023-05-15T14:47:21;24.00;38.20
21807;DHT22;11065;50.786;7.840;2023-05-15T14:49:52;23.90;38.20
21807;DHT22;11065;50.786;7.840;2023-05-15T14:52:20;23.70;38.00
21807;DHT22;11065;50.786;7.840;2023-05-15T14:54:48;23.70;38.00
21807;DHT22;11065;50.786;7.840;2023-05-15T14:57:34;23.50;37.90
21807;DHT22;11065;50.786;7.840;2023-05-15T15:00:03;23.30;37.80
21807;DHT22;11065;50.786;7.840;2023-05-15T15:02:32;23.20;38.00
21807;DHT22;11065;50.786;7.840;2023-05-15T15:05:01;23.00;38.10
21807;DHT22;11065;50.786;7.840;2023-05-15T15:07:30;23.00;38.30
21807;DHT22;11065;50.786;7.840;2023-05-15T15:09:58;22.80;38.30
21807;DHT22;11065;50.786;7.840;2023-05-15T15:12:26;22.70;38.30
21807;DHT22;11065;50.786;7.840;2023-05-15T15:14:54;22.70;38.80
21807;DHT22;11065;50.786;7.840;2023-05-15T15:17:22;22.60;39.00
21807;DHT22;11065;50.786;7.840;2023-05-15T15:19:50;22.60;38.90
21807;DHT22;11065;50.786;7.840;2023-05-15T15:22:19;22.60;38.90
21807;DHT22;11065;50.786;7.840;2023-05-15T15:24:47;22.70;39.10
21807;DHT22;11065;50.786;7.840;2023-05-15T15:27:15;22.80;39.40
21807;DHT22;11065;50.786;7.840;2023-05-15T15:29:44;23.00;39.50
21807;DHT22;11065;50.786;7.840;2023-05-15T15:32:12;23.20;39.70
21807;DHT22;11065;50.786;7.840;2023-05-15T15:34:41;23.40;39.90
21807;DHT22;11065;50.786;7.840;2023-05-15T15:37:09;23.70;39.80
21807;DHT22;11065;50.786;7.840;2023-05-15T15:39:39;24.00;39.70
21807;DHT22;11065;50.786;7.840;2023-05-15T15:42:07;24.30;39.40
21807;DHT22;11065;50.786;7.840;2023-05-15T15:44:35;24.50;39.20
21807;DHT22;11065;50.786;7.840;2023-05-15T15:47:03;24.60;39.00
21807;DHT22;11065;50.786;7.840;2023-05-15T15:49:31;24.70;38.90